createdAt,value
2019-05-29T00:01:26.826Z,16.10
2019-05-29T00:03:57.325Z,16.10
2019-05-29T00:06:27.732Z,16.10
2019-05-29T00:08:58.161Z,16.10
2019-05-29T00:11:28.587Z,16.10
2019-05-29T00:14:00.672Z,16.20
2019-05-29T00:16:31.049Z,16.10
2019-05-29T00:19:01.518Z,16.10
2019-05-29T00:21:31.941Z,16.10
2019-05-29T00:24:02.306Z,16.10
2019-05-29T00:26:32.646Z,16.10
2019-05-29T00:29:03.099Z,16.10
2019-05-29T00:31:33.542Z,16.10
2019-05-29T00:34:03.988Z,16.10
2019-05-29T00:36:34.604Z,16.10
2019-05-29T00:39:08.674Z,16.10
2019-05-29T00:41:39.224Z,16.10
2019-05-29T00:44:09.672Z,16.00
2019-05-29T00:46:40.092Z,16.10
2019-05-29T00:49:10.438Z,16.00
2019-05-29T00:51:40.840Z,16.00
2019-05-29T00:54:12.435Z,16.00
2019-05-29T00:56:43.155Z,16.00
2019-05-29T00:59:13.552Z,16.00
2019-05-29T01:01:43.901Z,16.00
2019-05-29T01:04:15.672Z,16.00
2019-05-29T01:06:46.046Z,16.00
2019-05-29T01:09:16.508Z,15.90
2019-05-29T01:11:46.806Z,15.90
2019-05-29T01:14:17.292Z,15.90
2019-05-29T01:16:47.715Z,15.80
2019-05-29T01:19:27.084Z,15.80
2019-05-29T01:21:58.112Z,15.60
2019-05-29T01:24:28.465Z,15.50
2019-05-29T01:26:58.901Z,15.50
2019-05-29T01:29:29.552Z,15.40
2019-05-29T01:32:00.043Z,15.30
2019-05-29T01:34:30.508Z,15.30
2019-05-29T01:37:01.112Z,15.20
2019-05-29T01:39:31.472Z,15.10
2019-05-29T01:42:01.843Z,15.10
2019-05-29T01:44:32.250Z,15.00
2019-05-29T01:47:02.610Z,14.80
2019-05-29T01:49:34.842Z,14.80
2019-05-29T01:52:05.175Z,14.60
2019-05-29T01:54:35.578Z,14.60
2019-05-29T01:57:05.979Z,14.50
2019-05-29T01:59:36.384Z,14.50
2019-05-29T02:02:06.745Z,14.40
2019-05-29T02:04:37.171Z,14.40
2019-05-29T02:07:07.561Z,14.30
2019-05-29T02:09:37.964Z,14.30
2019-05-29T02:12:08.472Z,14.20
2019-05-29T02:14:38.870Z,14.10
2019-05-29T02:17:10.738Z,14.00
2019-05-29T02:19:42.058Z,13.90
2019-05-29T02:22:12.449Z,13.90
2019-05-29T02:24:42.937Z,13.80
2019-05-29T02:27:13.284Z,13.80
2019-05-29T02:29:43.744Z,13.70
2019-05-29T02:32:14.080Z,13.60
2019-05-29T02:34:44.453Z,13.60
2019-05-29T02:37:14.802Z,13.50
2019-05-29T02:39:45.164Z,13.50
2019-05-29T02:42:15.557Z,13.50
2019-05-29T02:44:45.913Z,13.40
2019-05-29T02:47:16.230Z,13.40
2019-05-29T02:49:46.595Z,13.40
2019-05-29T02:52:16.938Z,13.30
2019-05-29T02:54:47.357Z,13.30
2019-05-29T02:57:17.813Z,13.30
2019-05-29T02:59:48.199Z,13.20
2019-05-29T03:02:18.505Z,13.20
2019-05-29T03:04:48.849Z,13.20
2019-05-29T03:07:19.211Z,13.10
2019-05-29T03:09:50.054Z,13.10
2019-05-29T03:12:20.489Z,13.10
2019-05-29T03:14:50.921Z,13.10
2019-05-29T03:17:21.223Z,13.10
2019-05-29T03:19:51.643Z,13.00
2019-05-29T03:22:22.000Z,13.00
2019-05-29T03:24:52.470Z,13.00
2019-05-29T03:27:23.173Z,13.00
2019-05-29T03:29:53.541Z,13.00
2019-05-29T03:32:27.121Z,12.90
2019-05-29T03:34:56.533Z,12.90
2019-05-29T03:37:28.252Z,12.90
2019-05-29T03:39:58.695Z,12.80
2019-05-29T03:42:30.391Z,12.80
2019-05-29T03:45:00.743Z,12.70
2019-05-29T03:47:32.715Z,12.70
2019-05-29T03:50:03.108Z,12.60
2019-05-29T03:52:34.721Z,12.60
2019-05-29T03:55:05.850Z,12.60
2019-05-29T03:57:37.840Z,12.60
2019-05-29T04:00:08.896Z,12.60
2019-05-29T04:02:39.282Z,12.50
2019-05-29T04:05:10.057Z,12.50
2019-05-29T04:07:40.420Z,12.50
2019-05-29T04:10:11.355Z,12.50
2019-05-29T04:12:41.753Z,12.40
2019-05-29T04:15:12.173Z,12.40
2019-05-29T04:17:43.510Z,12.40
2019-05-29T04:20:14.416Z,12.40
2019-05-29T04:22:46.121Z,12.40
2019-05-29T04:25:16.517Z,12.40
2019-05-29T04:27:50.158Z,12.40
2019-05-29T04:30:21.047Z,12.40
2019-05-29T04:32:51.372Z,12.30
2019-05-29T04:35:21.712Z,12.40
2019-05-29T04:37:52.033Z,12.30
2019-05-29T04:40:22.410Z,12.30
2019-05-29T04:42:52.737Z,12.30
2019-05-29T04:45:24.042Z,12.30
2019-05-29T04:47:54.361Z,12.20
2019-05-29T04:50:24.765Z,12.20
2019-05-29T04:52:55.103Z,12.10
2019-05-29T04:55:25.498Z,12.10
2019-05-29T04:57:55.868Z,12.00
2019-05-29T05:00:26.271Z,11.90
2019-05-29T05:02:56.546Z,11.90
2019-05-29T05:05:26.944Z,11.80
2019-05-29T05:07:57.315Z,11.80
2019-05-29T05:10:40.573Z,11.70
2019-05-29T05:13:10.352Z,11.70
2019-05-29T05:15:40.806Z,11.70
2019-05-29T05:18:11.140Z,11.70
2019-05-29T05:20:41.644Z,11.70
2019-05-29T05:23:11.998Z,11.60
2019-05-29T05:25:42.305Z,11.60
2019-05-29T05:28:12.594Z,11.60
2019-05-29T05:30:42.976Z,11.60
2019-05-29T05:33:13.394Z,11.60
2019-05-29T05:35:43.788Z,11.60
2019-05-29T05:38:14.180Z,11.60
2019-05-29T05:40:44.768Z,11.60
2019-05-29T05:43:23.829Z,11.60
2019-05-29T05:45:47.234Z,11.60
2019-05-29T05:48:17.695Z,11.60
2019-05-29T05:50:48.284Z,11.60
2019-05-29T05:53:18.640Z,11.60
2019-05-29T05:55:49.080Z,11.60
2019-05-29T05:58:19.422Z,11.60
2019-05-29T06:00:49.922Z,11.60
2019-05-29T06:03:20.304Z,11.60
2019-05-29T06:05:50.684Z,11.60
2019-05-29T06:08:21.003Z,11.60
2019-05-29T06:10:51.426Z,11.60
2019-05-29T06:13:21.723Z,11.60
2019-05-29T06:15:52.126Z,11.60
2019-05-29T06:18:22.471Z,11.60
2019-05-29T06:20:53.009Z,11.70
2019-05-29T06:23:23.669Z,11.70
2019-05-29T06:25:54.052Z,11.70
2019-05-29T06:28:24.740Z,11.70
2019-05-29T06:30:55.166Z,11.70
2019-05-29T06:33:25.558Z,11.60
2019-05-29T06:35:55.974Z,11.60
2019-05-29T06:38:26.296Z,11.50
2019-05-29T06:40:56.679Z,11.50
2019-05-29T06:43:27.418Z,11.40
2019-05-29T06:45:57.919Z,11.40
2019-05-29T06:48:56.311Z,11.40
2019-05-29T06:51:01.092Z,11.40
2019-05-29T06:53:31.439Z,11.40
2019-05-29T06:56:02.688Z,11.40
2019-05-29T06:58:33.852Z,11.40
2019-05-29T07:01:04.244Z,11.40
2019-05-29T07:03:35.587Z,11.50
2019-05-29T07:06:06.438Z,11.50
2019-05-29T07:08:40.098Z,11.50
2019-05-29T07:11:09.663Z,11.50
2019-05-29T07:13:43.127Z,11.60
2019-05-29T07:16:12.062Z,11.60
2019-05-29T07:19:20.602Z,11.60
2019-05-29T07:21:15.351Z,11.50
2019-05-29T07:23:47.911Z,11.60
2019-05-29T07:26:17.877Z,11.50
2019-05-29T07:29:06.392Z,11.50
2019-05-29T07:31:20.337Z,11.50
2019-05-29T07:33:50.746Z,11.40
2019-05-29T07:36:21.109Z,11.40
2019-05-29T07:39:02.561Z,11.50
2019-05-29T07:41:24.538Z,11.50
2019-05-29T07:43:54.903Z,11.50
2019-05-29T07:46:25.386Z,11.50
2019-05-29T07:48:56.455Z,11.50
2019-05-29T07:51:26.832Z,11.60
2019-05-29T07:53:57.375Z,11.50
2019-05-29T07:56:27.753Z,11.50
2019-05-29T07:59:03.318Z,11.50
2019-05-29T08:01:30.642Z,11.50
2019-05-29T08:04:01.016Z,11.40
2019-05-29T08:06:31.395Z,11.40
2019-05-29T08:09:01.853Z,11.40
2019-05-29T08:11:33.751Z,11.40
2019-05-29T08:14:04.201Z,11.30
2019-05-29T08:16:35.280Z,11.30
2019-05-29T08:19:07.977Z,11.40
2019-05-29T08:21:37.883Z,11.50
2019-05-29T08:24:08.280Z,11.50
2019-05-29T08:26:38.874Z,11.60
2019-05-29T08:29:09.344Z,11.60
2019-05-29T08:31:40.677Z,11.80
2019-05-29T08:34:11.417Z,11.90
2019-05-29T08:36:57.741Z,12.00
2019-05-29T08:39:32.989Z,12.10
2019-05-29T08:42:06.092Z,12.20
2019-05-29T08:44:20.104Z,12.30
2019-05-29T08:47:05.113Z,12.40
2019-05-29T08:49:22.541Z,12.40
2019-05-29T08:52:08.238Z,12.40
2019-05-29T08:54:24.990Z,12.30
2019-05-29T08:56:55.340Z,12.30
2019-05-29T08:59:25.737Z,12.30
2019-05-29T09:01:56.160Z,12.20
2019-05-29T09:04:26.581Z,12.20
2019-05-29T09:06:56.909Z,12.20
2019-05-29T09:09:27.334Z,12.20
2019-05-29T09:11:57.735Z,12.30
2019-05-29T09:14:28.209Z,12.30
2019-05-29T09:16:58.678Z,12.40
2019-05-29T09:19:29.230Z,12.40
2019-05-29T09:21:59.732Z,12.40
2019-05-29T09:24:30.198Z,12.60
2019-05-29T09:27:00.650Z,12.80
2019-05-29T09:29:31.156Z,12.90
2019-05-29T09:32:01.629Z,13.00
2019-05-29T09:34:32.073Z,13.10
2019-05-29T09:37:02.547Z,13.10
2019-05-29T09:39:32.996Z,13.10
2019-05-29T09:42:03.402Z,13.30
2019-05-29T09:44:38.760Z,13.40
2019-05-29T09:47:05.806Z,13.50
2019-05-29T09:49:36.282Z,13.60
2019-05-29T09:52:06.780Z,13.70
2019-05-29T09:54:37.231Z,13.80
2019-05-29T09:57:07.612Z,13.90
2019-05-29T09:59:38.198Z,14.00
2019-05-29T10:02:09.201Z,14.00
2019-05-29T10:04:39.913Z,13.90
2019-05-29T10:07:10.258Z,13.80
2019-05-29T10:09:40.594Z,13.60
2019-05-29T10:12:11.021Z,13.50
2019-05-29T10:14:42.383Z,13.20
2019-05-29T10:17:13.358Z,13.10
2019-05-29T10:19:44.037Z,13.00
2019-05-29T10:22:14.461Z,12.90
2019-05-29T10:24:45.040Z,12.80
2019-05-29T10:27:15.421Z,12.80
2019-05-29T10:29:48.839Z,12.80
2019-05-29T10:32:17.842Z,12.80
2019-05-29T10:34:48.512Z,12.80
2019-05-29T10:37:19.064Z,12.80
2019-05-29T10:39:52.961Z,12.90
2019-05-29T10:42:23.695Z,13.00
2019-05-29T10:44:54.136Z,13.10
2019-05-29T10:47:24.498Z,13.30
2019-05-29T10:49:55.007Z,13.40
2019-05-29T10:52:25.778Z,13.50
2019-05-29T10:54:57.840Z,13.60
2019-05-29T10:57:28.204Z,13.60
2019-05-29T10:59:58.876Z,13.70
2019-05-29T11:02:29.210Z,13.80
2019-05-29T11:04:59.795Z,14.10
2019-05-29T11:07:30.515Z,14.30
2019-05-29T11:10:00.914Z,14.30
2019-05-29T11:12:31.296Z,14.20
2019-05-29T11:15:19.964Z,14.10
2019-05-29T11:17:34.838Z,13.90
2019-05-29T11:20:06.417Z,13.70
2019-05-29T11:22:36.762Z,13.60
2019-05-29T11:25:21.490Z,13.50
2019-05-29T11:27:40.622Z,13.50
2019-05-29T11:30:12.999Z,13.60
2019-05-29T11:32:47.287Z,13.70
2019-05-29T11:35:16.043Z,13.90
2019-05-29T11:37:46.404Z,14.20
2019-05-29T11:40:17.243Z,14.50
2019-05-29T11:42:47.941Z,15.00
2019-05-29T11:45:18.971Z,15.60
2019-05-29T11:47:49.330Z,16.10
2019-05-29T11:50:20.315Z,16.10
2019-05-29T11:52:50.630Z,16.00
2019-05-29T11:55:22.297Z,15.90
2019-05-29T11:57:53.731Z,15.80
2019-05-29T12:00:24.618Z,15.70
2019-05-29T12:02:55.842Z,15.60
2019-05-29T12:05:26.389Z,15.70
2019-05-29T12:07:57.520Z,15.90
2019-05-29T12:10:28.127Z,16.40
2019-05-29T12:12:59.619Z,17.00
2019-05-29T12:15:29.946Z,17.50
2019-05-29T12:18:20.856Z,17.80
2019-05-29T12:20:32.636Z,18.10
2019-05-29T12:23:24.358Z,18.20
2019-05-29T12:25:37.965Z,18.20
2019-05-29T12:28:08.475Z,18.00
2019-05-29T12:30:39.337Z,17.90
2019-05-29T12:33:09.683Z,17.70
2019-05-29T12:35:39.986Z,17.70
2019-05-29T12:38:10.360Z,17.70
2019-05-29T12:40:40.694Z,17.50
2019-05-29T12:43:25.910Z,17.40
2019-05-29T12:45:43.044Z,17.30
2019-05-29T12:48:15.262Z,17.20
2019-05-29T12:50:45.467Z,17.20
2019-05-29T12:53:29.704Z,17.30
2019-05-29T12:55:47.771Z,17.50
2019-05-29T12:58:18.149Z,17.60
2019-05-29T13:00:48.527Z,17.40
2019-05-29T13:03:19.048Z,17.30
2019-05-29T13:05:49.491Z,17.20
2019-05-29T13:08:19.853Z,17.20
2019-05-29T13:10:50.214Z,17.10
2019-05-29T13:13:20.577Z,17.10
2019-05-29T13:15:51.078Z,17.00
2019-05-29T13:18:21.955Z,16.90
2019-05-29T13:20:52.343Z,16.80
2019-05-29T13:23:23.782Z,16.80
2019-05-29T13:25:55.283Z,16.70
2019-05-29T13:28:25.826Z,16.70
2019-05-29T13:30:56.177Z,16.60
2019-05-29T13:33:26.977Z,16.70
2019-05-29T13:35:58.070Z,16.80
2019-05-29T13:38:28.708Z,16.90
2019-05-29T13:41:00.284Z,17.10
2019-05-29T13:43:30.965Z,17.20
2019-05-29T13:46:02.488Z,17.30
2019-05-29T13:48:33.200Z,17.40
2019-05-29T13:51:03.803Z,17.40
2019-05-29T13:53:34.471Z,17.40
2019-05-29T13:56:06.109Z,17.40
2019-05-29T13:58:36.598Z,17.40
2019-05-29T14:01:08.353Z,17.30
2019-05-29T14:03:40.160Z,17.50
2019-05-29T14:06:10.506Z,17.50
2019-05-29T14:08:40.853Z,17.40
2019-05-29T14:11:12.431Z,17.20
2019-05-29T14:13:44.081Z,17.00
2019-05-29T14:16:16.316Z,16.80
2019-05-29T14:18:46.779Z,16.70
2019-05-29T14:21:17.151Z,16.70
2019-05-29T14:23:47.545Z,16.70
2019-05-29T14:26:18.030Z,16.80
2019-05-29T14:28:48.407Z,16.90
2019-05-29T14:31:18.779Z,17.00
2019-05-29T14:33:49.195Z,17.00
2019-05-29T14:36:19.553Z,16.90
2019-05-29T14:38:49.909Z,17.00
2019-05-29T14:41:20.369Z,17.00
2019-05-29T14:43:50.755Z,16.90
2019-05-29T14:46:21.116Z,16.80
2019-05-29T14:48:52.289Z,16.70
2019-05-29T14:51:23.019Z,16.60
2019-05-29T14:53:53.537Z,16.50
2019-05-29T14:56:23.891Z,16.40
2019-05-29T14:58:54.204Z,16.40
2019-05-29T15:01:26.117Z,16.40
2019-05-29T15:03:56.513Z,16.40
2019-05-29T15:06:26.786Z,16.40
2019-05-29T15:08:57.224Z,16.50
2019-05-29T15:11:27.555Z,16.50
2019-05-29T15:13:57.921Z,16.50
2019-05-29T15:16:28.599Z,16.50
2019-05-29T15:18:58.957Z,16.50
2019-05-29T15:21:29.351Z,16.50
2019-05-29T15:23:59.703Z,16.50
2019-05-29T15:26:30.129Z,16.60
2019-05-29T15:29:00.517Z,16.60
2019-05-29T15:31:30.939Z,16.60
2019-05-29T15:34:01.347Z,16.60
2019-05-29T15:36:31.743Z,16.60
2019-05-29T15:39:02.124Z,16.50
2019-05-29T15:41:32.553Z,16.50
2019-05-29T15:44:02.949Z,16.40
2019-05-29T15:46:33.394Z,16.40
2019-05-29T15:49:03.799Z,16.40
2019-05-29T15:51:34.175Z,16.40
2019-05-29T15:54:04.520Z,16.40
2019-05-29T15:56:34.874Z,16.40
2019-05-29T15:59:07.576Z,16.40
2019-05-29T16:01:37.737Z,16.40
2019-05-29T16:04:08.090Z,16.30
2019-05-29T16:06:39.146Z,16.30
2019-05-29T16:09:10.216Z,16.30
2019-05-29T16:11:40.986Z,16.30
2019-05-29T16:14:11.257Z,16.30
2019-05-29T16:16:41.809Z,16.20
2019-05-29T16:19:12.163Z,16.20
2019-05-29T16:21:42.529Z,16.20
2019-05-29T16:24:12.881Z,16.10
2019-05-29T16:26:43.393Z,16.10
2019-05-29T16:29:15.998Z,16.10
2019-05-29T16:31:45.889Z,16.00
2019-05-29T16:34:18.877Z,16.00
2019-05-29T16:36:49.023Z,16.00
2019-05-29T16:39:21.126Z,16.00
2019-05-29T16:41:51.536Z,16.00
2019-05-29T16:44:27.513Z,16.00
2019-05-29T16:46:54.081Z,16.00
2019-05-29T16:49:24.445Z,16.00
2019-05-29T16:51:54.971Z,16.00
2019-05-29T16:54:25.423Z,16.00
2019-05-29T16:56:55.832Z,16.10
2019-05-29T16:59:29.015Z,16.10
2019-05-29T17:01:58.240Z,16.10
2019-05-29T17:04:28.547Z,16.10
2019-05-29T17:06:59.139Z,16.10
2019-05-29T17:09:29.485Z,16.10
2019-05-29T17:11:59.873Z,16.00
2019-05-29T17:14:30.828Z,16.00
2019-05-29T17:17:01.112Z,16.00
2019-05-29T17:19:31.462Z,16.00
2019-05-29T17:22:01.962Z,15.90
2019-05-29T17:24:32.342Z,15.90
2019-05-29T17:27:02.671Z,15.90
2019-05-29T17:29:33.088Z,15.90
2019-05-29T17:32:03.481Z,15.80
2019-05-29T17:34:33.782Z,15.80
2019-05-29T17:37:04.486Z,15.80
2019-05-29T17:39:35.026Z,15.80
2019-05-29T17:42:05.685Z,15.80
2019-05-29T17:44:36.073Z,15.70
2019-05-29T17:47:06.513Z,15.70
2019-05-29T17:49:36.936Z,15.70
2019-05-29T17:52:08.668Z,15.70
2019-05-29T17:54:39.121Z,15.70
2019-05-29T17:57:09.826Z,15.70
2019-05-29T17:59:42.866Z,15.70
2019-05-29T18:02:13.259Z,15.60
2019-05-29T18:04:43.702Z,15.70
2019-05-29T18:07:14.028Z,15.60
2019-05-29T18:09:44.364Z,15.60
2019-05-29T18:12:14.707Z,15.50
2019-05-29T18:14:45.072Z,15.50
2019-05-29T18:17:15.486Z,15.40
2019-05-29T18:19:46.086Z,15.40
2019-05-29T18:22:17.478Z,15.30
2019-05-29T18:24:48.068Z,15.20
2019-05-29T18:27:18.448Z,15.20
2019-05-29T18:29:48.814Z,15.00
2019-05-29T18:32:20.260Z,15.00
2019-05-29T18:34:53.581Z,14.90
2019-05-29T18:37:24.091Z,14.90
2019-05-29T18:39:54.650Z,14.80
2019-05-29T18:42:25.780Z,14.70
2019-05-29T18:44:59.942Z,14.70
2019-05-29T18:47:30.270Z,14.60
2019-05-29T18:50:00.632Z,14.50
2019-05-29T18:52:32.792Z,14.40
2019-05-29T18:55:03.072Z,14.30
2019-05-29T18:57:33.455Z,14.20
2019-05-29T19:00:04.197Z,14.10
2019-05-29T19:02:36.896Z,14.10
2019-05-29T19:05:08.352Z,14.00
2019-05-29T19:07:39.020Z,13.90
2019-05-29T19:10:11.212Z,13.90
2019-05-29T19:12:41.600Z,13.90
2019-05-29T19:17:47.648Z,13.70
2019-05-29T19:20:18.633Z,13.60
2019-05-29T19:22:48.985Z,13.60
2019-05-29T19:25:19.339Z,13.50
2019-05-29T19:27:50.019Z,13.40
2019-05-29T19:30:20.972Z,13.40
2019-05-29T19:32:51.680Z,13.40
2019-05-29T19:35:23.382Z,13.30
2019-05-29T19:37:54.002Z,13.20
2019-05-29T19:40:24.389Z,13.20
2019-05-29T19:42:55.033Z,13.10
2019-05-29T19:45:26.580Z,13.10
2019-05-29T19:47:57.250Z,13.10
2019-05-29T19:50:28.465Z,13.00
2019-05-29T19:52:59.387Z,13.00
2019-05-29T19:55:32.924Z,12.90
2019-05-29T19:58:01.840Z,12.90
2019-05-29T20:00:32.335Z,12.80
2019-05-29T20:03:02.737Z,12.80
2019-05-29T20:05:33.184Z,12.70
2019-05-29T20:08:03.670Z,12.70
2019-05-29T20:10:35.369Z,12.60
2019-05-29T20:13:06.652Z,12.60
2019-05-29T20:15:38.031Z,12.60
2019-05-29T20:18:08.756Z,12.60
2019-05-29T20:20:39.296Z,12.60
2019-05-29T20:23:09.586Z,12.50
2019-05-29T20:25:40.049Z,12.50
2019-05-29T20:28:10.503Z,12.40
2019-05-29T20:30:40.878Z,12.40
2019-05-29T20:33:12.177Z,12.30
2019-05-29T20:35:43.182Z,12.20
2019-05-29T20:38:15.237Z,12.20
2019-05-29T20:40:45.716Z,12.20
2019-05-29T20:43:16.054Z,12.10
2019-05-29T20:45:46.344Z,12.00
2019-05-29T20:48:16.699Z,11.90
2019-05-29T20:50:48.064Z,11.80
2019-05-29T20:53:18.569Z,11.70
2019-05-29T20:55:48.952Z,11.70
2019-05-29T20:58:24.452Z,11.60
2019-05-29T21:00:51.698Z,11.60
2019-05-29T21:03:22.021Z,11.50
2019-05-29T21:05:52.368Z,11.50
2019-05-29T21:08:22.800Z,11.40
2019-05-29T21:10:53.188Z,11.40
2019-05-29T21:13:23.468Z,11.40
2019-05-29T21:15:53.842Z,11.40
2019-05-29T21:18:24.219Z,11.30
2019-05-29T21:20:54.665Z,11.20
2019-05-29T21:23:24.957Z,11.20
2019-05-29T21:25:55.304Z,11.10
2019-05-29T21:28:39.260Z,11.10
2019-05-29T21:30:57.579Z,11.00
2019-05-29T21:33:28.050Z,11.00
2019-05-29T21:35:58.484Z,10.90
2019-05-29T21:38:28.852Z,10.90
2019-05-29T21:40:59.208Z,10.90
2019-05-29T21:43:29.561Z,10.80
2019-05-29T21:45:59.882Z,10.80
2019-05-29T21:48:30.243Z,10.70
2019-05-29T21:51:00.618Z,10.70
2019-05-29T21:53:32.499Z,10.70
2019-05-29T21:56:02.916Z,10.70
2019-05-29T21:58:33.282Z,10.70
2019-05-29T22:01:04.371Z,10.60
2019-05-29T22:03:34.791Z,10.60
2019-05-29T22:06:07.071Z,10.50
2019-05-29T22:08:38.666Z,10.50
2019-05-29T22:11:09.242Z,10.50
2019-05-29T22:13:39.640Z,10.40
2019-05-29T22:16:09.958Z,10.30
2019-05-29T22:18:40.310Z,10.20
2019-05-29T22:21:10.638Z,10.20
2019-05-29T22:23:40.948Z,10.10
2019-05-29T22:26:11.312Z,10.10
2019-05-29T22:28:41.802Z,10.00
2019-05-29T22:31:12.126Z,9.90
2019-05-29T22:33:42.429Z,9.90
2019-05-29T22:36:12.679Z,9.80
2019-05-29T22:38:43.034Z,9.80
2019-05-29T22:41:13.365Z,9.80
2019-05-29T22:43:43.690Z,9.70
2019-05-29T22:46:14.872Z,9.70
2019-05-29T22:48:45.226Z,9.70
2019-05-29T22:51:15.579Z,9.60
2019-05-29T22:53:45.936Z,9.60
2019-05-29T22:56:16.252Z,9.50
2019-05-29T22:58:46.588Z,9.50
2019-05-29T23:01:18.045Z,9.40
2019-05-29T23:03:49.708Z,9.40
2019-05-29T23:06:21.123Z,9.30
2019-05-29T23:08:52.138Z,9.30
2019-05-29T23:11:22.648Z,9.20
2019-05-29T23:13:54.131Z,9.20
2019-05-29T23:16:24.672Z,9.10
2019-05-29T23:18:56.481Z,9.00
2019-05-29T23:21:27.023Z,9.00
2019-05-29T23:23:57.532Z,9.00
2019-05-29T23:26:28.002Z,8.90
2019-05-29T23:28:59.285Z,8.90
2019-05-29T23:31:29.768Z,8.80
2019-05-29T23:34:01.059Z,8.80
2019-05-29T23:36:31.638Z,8.70
2019-05-29T23:39:01.899Z,8.70
2019-05-29T23:41:33.474Z,8.70
2019-05-29T23:44:04.060Z,8.60
2019-05-29T23:46:34.422Z,8.60
2019-05-29T23:49:04.776Z,8.50
2019-05-29T23:51:35.157Z,8.50
2019-05-29T23:54:05.474Z,8.40
2019-05-29T23:56:35.972Z,8.40
2019-05-29T23:59:06.223Z,8.40
